메인 페이지
METAR-TAF:

METAR-TAF

공항 :

마두라이, 인도

위도: 09-50-01N, 경도: 078-05-22E, 고도: 136m

현재 날씨관측

예보는 10분 전, 08:00시(UTC)에 발표되었습니다.
북북동6kt
온도 31°C
습도 52%
기압 1011 hPa
시정: 6000m
고도 2000ft 상공 구름 조금
고도 10000ft 상공 구름 보통

METAR: VOMD 150800Z 02006KT 6000 FEW020 SCT100 31/20 Q1011 NOSIG

시각: 13:40 (08:10 UTC)

예보

예보는 9 시간 10분 전, 23:00시(UTC)에 발표되었습니다.
예보 대상 시간: 15일 00시부터 16일 06시까지 (UTC)
여러 방향의 바람 2kt
시정: 3000m
고도 1800ft 상공 구름 조금
박무
일시적
15일 00시부터 15일 03시까지 (UTC)
시정: 1500m
박무
전환 중
15일 05시부터 15일 06시까지 (UTC)
동북동5kt
시정: 6000m
전환 중
15일 18시부터 15일 19시까지 (UTC)
여러 방향의 바람 2kt
시정: 5000m
연무
일시적
16일 00시부터 16일 03시까지 (UTC)
시정: 1500m
박무
전환 중
16일 05시부터 16일 06시까지 (UTC)
동북동5kt
시정: 6000m

TAF: VOMD 142300Z 1500/1606 VRB02KT 3000 BR FEW018 TEMPO 1500/1503 1500 BR BECMG 1505/1506 07005KT 6000 BECMG 1518/1519 VRB02KT 5000 HZ TEMPO 1600/1603 1500 BR BECMG 1605/1606 07005KT 6000

4,000개 이상의 공항 관측 자료 및 예보 (METAR 및 TAF 보고).

지도상에서 검색 가능한 기상관측소가 노란 점과 빨간 점으로 표시되어 있습니다.

기상관측소 명을 보려면 표시 위로 마우스를 이동하세요.

날씨 관측과 예보를 보려면 클릭하세요.

지도 변경 : 확대하려면 엑스 표시가 있는 녹색 버튼, 축소하려면 빼기 표시가 있는 녹색 버튼, 다음 페이지의 지도를 보려면 녹색 화살표를 클릭하세요.


METAR-TAF: